Time;durP1;ratioP1;P1;durP2;ratioP2;P2;SDS_P1;SDS_P2;PMS_P1;PMS_P2;Temp;Humidity;BMP_temperature;BMP_pressure;BME280_temperature;BME280_humidity;BME280_pressure;Samples;Min_cycle;Max_cycle;Signal;HPM_P1;HPM_P2
2023/11/11 00:00:36;;;;;;;3.22;1.40;;;;;;;11.74;61.27;99664.59;4970519;28;96767;-72
2023/11/11 00:03:03;;;;;;;4.63;1.30;;;;;;;11.64;61.54;99665.16;4968658;28;98910;-72
2023/11/11 00:05:30;;;;;;;5.72;1.60;;;;;;;11.52;62.02;99664.06;4969681;28;99614;-72
2023/11/11 00:07:57;;;;;;;2.90;1.58;;;;;;;11.47;62.32;99669.63;4974256;28;97528;-73
2023/11/11 00:10:24;;;;;;;1.38;1.10;;;;;;;11.62;61.48;99661.78;4972101;28;96747;-73
2023/11/11 00:12:51;;;;;;;5.60;1.70;;;;;;;11.88;61.02;99658.53;4973067;28;99255;-72
2023/11/11 00:15:18;;;;;;;4.38;1.50;;;;;;;11.73;61.18;99665.50;4973082;28;99410;-73
2023/11/11 00:17:44;;;;;;;4.65;1.33;;;;;;;11.78;61.28;99659.97;4973176;28;97100;-73
2023/11/11 00:20:13;;;;;;;4.97;1.60;;;;;;;11.78;60.85;99663.47;4973559;28;96793;-72
2023/11/11 00:22:40;;;;;;;2.70;1.77;;;;;;;11.89;60.78;99660.19;4971715;28;98915;-72
2023/11/11 00:25:08;;;;;;;3.20;1.40;;;;;;;11.94;60.48;99647.56;4973864;28;98948;-73
2023/11/11 00:27:35;;;;;;;4.90;1.83;;;;;;;12.01;60.27;99643.63;4973682;28;96807;-72
2023/11/11 00:30:03;;;;;;;5.68;1.50;;;;;;;11.70;61.31;99641.00;4973512;28;96843;-73
2023/11/11 00:32:30;;;;;;;4.32;1.48;;;;;;;11.87;60.87;99640.94;4972233;28;98872;-73
2023/11/11 00:34:56;;;;;;;8.43;1.70;;;;;;;11.84;60.41;99633.16;4966799;28;100068;-72
2023/11/11 00:37:23;;;;;;;5.50;1.40;;;;;;;12.17;59.86;99627.66;4968667;28;96818;-73
2023/11/11 00:39:50;;;;;;;3.05;1.63;;;;;;;11.73;60.77;99628.47;4971828;28;96924;-72
2023/11/11 00:42:18;;;;;;;2.00;1.20;;;;;;;12.05;60.26;99629.25;4974428;28;99200;-72
2023/11/11 00:44:44;;;;;;;3.33;1.45;;;;;;;12.06;59.66;99630.97;4972623;28;98762;-73
2023/11/11 00:47:11;;;;;;;3.45;1.50;;;;;;;12.01;59.91;99627.75;4973112;28;96799;-72
2023/11/11 00:49:38;;;;;;;2.45;1.48;;;;;;;12.16;59.17;99631.25;4971423;28;97768;-72
2023/11/11 00:52:05;;;;;;;2.22;1.42;;;;;;;11.93;59.81;99640.56;4971699;28;98829;-72
2023/11/11 00:54:33;;;;;;;4.20;1.40;;;;;;;11.95;60.01;99642.16;4972908;28;98090;-72
2023/11/11 00:57:00;;;;;;;4.07;1.30;;;;;;;11.94;60.24;99648.44;4972865;28;97681;-72
2023/11/11 00:59:28;;;;;;;3.25;1.90;;;;;;;12.05;59.48;99642.50;4973346;28;96782;-72
2023/11/11 01:01:54;;;;;;;4.10;1.40;;;;;;;11.94;59.81;99643.13;4972705;28;99207;-72
2023/11/11 01:04:21;;;;;;;3.38;1.70;;;;;;;11.57;61.16;99633.78;4973667;28;99073;-72
2023/11/11 01:06:47;;;;;;;2.40;1.50;;;;;;;11.90;60.25;99636.28;4972814;28;96783;-73
2023/11/11 01:09:14;;;;;;;4.15;1.50;;;;;;;11.86;60.03;99631.28;4971910;28;96822;-72
2023/11/11 01:11:41;;;;;;;2.63;1.23;;;;;;;11.60;60.98;99635.41;4972032;28;102046;-73
2023/11/11 01:14:08;;;;;;;2.28;1.15;;;;;;;11.94;59.90;99631.69;4972134;28;99100;-72
2023/11/11 01:16:35;;;;;;;3.55;1.40;;;;;;;11.64;60.70;99633.41;4973429;28;96803;-72
2023/11/11 01:19:02;;;;;;;2.53;1.67;;;;;;;11.63;60.65;99631.69;4967531;28;96973;-72
2023/11/11 01:21:29;;;;;;;6.13;1.70;;;;;;;11.50;61.24;99634.19;4973115;28;101411;-72
2023/11/11 01:23:56;;;;;;;4.05;1.33;;;;;;;11.64;60.55;99634.28;4971217;28;99136;-72
2023/11/11 01:26:23;;;;;;;5.63;1.42;;;;;;;11.35;61.31;99637.72;4971882;28;97213;-72
2023/11/11 01:28:50;;;;;;;2.75;1.75;;;;;;;11.39;61.25;99634.81;4971477;28;96811;-72
2023/11/11 01:31:16;;;;;;;5.90;1.65;;;;;;;11.27;61.89;99634.66;4970797;28;99309;-72
2023/11/11 01:33:44;;;;;;;3.15;1.67;;;;;;;11.29;61.60;99630.97;4970021;28;98760;-73
2023/11/11 01:36:11;;;;;;;4.75;1.50;;;;;;;11.25;62.05;99628.59;4972730;28;96767;-72
2023/11/11 01:38:37;;;;;;;3.55;1.55;;;;;;;11.22;62.05;99637.56;4973063;28;97064;-73
2023/11/11 01:41:04;;;;;;;3.42;1.60;;;;;;;11.11;62.39;99629.34;4969897;28;98994;-71
2023/11/11 01:43:31;;;;;;;3.95;1.63;;;;;;;11.17;62.21;99626.38;4965950;28;99475;-74
2023/11/11 01:46:01;;;;;;;4.60;1.48;;;;;;;11.03;62.58;99631.56;4972613;28;97078;-72
2023/11/11 01:48:30;;;;;;;5.20;1.50;;;;;;;11.21;62.12;99627.91;4972884;28;96759;-72
2023/11/11 01:50:58;;;;;;;2.65;1.38;;;;;;;11.03;62.50;99620.97;4969719;28;99168;-73
2023/11/11 01:53:25;;;;;;;3.75;1.55;;;;;;;10.89;63.13;99613.84;4969120;28;99367;-73
2023/11/11 01:55:52;;;;;;;3.10;1.40;;;;;;;11.26;61.98;99617.06;4972370;28;97126;-73
2023/11/11 01:58:21;;;;;;;3.53;1.45;;;;;;;11.22;61.76;99611.13;4969315;28;98695;-73
2023/11/11 02:00:48;;;;;;;3.25;1.70;;;;;;;11.19;61.55;99608.63;4972083;28;99227;-72
2023/11/11 02:03:14;;;;;;;5.60;1.88;;;;;;;10.90;62.26;99618.16;4970429;28;99295;-72
2023/11/11 02:05:42;;;;;;;3.65;1.45;;;;;;;10.88;62.96;99611.28;4971654;28;96883;-73
2023/11/11 02:08:11;;;;;;;5.57;1.52;;;;;;;10.79;62.80;99613.47;4972509;28;97245;-72
2023/11/11 02:10:38;;;;;;;4.03;1.50;;;;;;;10.87;62.80;99606.91;4971369;28;98124;-73
2023/11/11 02:13:05;;;;;;;3.80;1.48;;;;;;;10.70;63.35;99608.66;4969951;28;98575;-73
2023/11/11 02:15:32;;;;;;;8.38;1.75;;;;;;;10.96;62.30;99598.50;4971095;28;96725;-72
2023/11/11 02:18:00;;;;;;;5.13;1.75;;;;;;;10.85;62.57;99598.22;4971711;28;97240;-72
2023/11/11 02:20:29;;;;;;;4.75;1.38;;;;;;;10.92;62.37;99597.78;4971625;28;99295;-72
2023/11/11 02:22:55;;;;;;;4.78;1.40;;;;;;;10.66;63.20;99601.84;4968987;28;98850;-71
2023/11/11 02:25:23;;;;;;;2.72;1.60;;;;;;;10.70;63.37;99600.75;4971819;28;96824;-72
2023/11/11 02:27:50;;;;;;;7.60;1.67;;;;;;;10.71;63.10;99598.97;4972945;28;97617;-73
2023/11/11 02:30:16;;;;;;;2.45;1.52;;;;;;;10.78;63.05;99597.69;4970251;28;99073;-73
2023/11/11 02:32:43;;;;;;;4.75;1.75;;;;;;;10.82;62.47;99601.03;4971975;28;98231;-73
2023/11/11 02:35:09;;;;;;;3.58;1.63;;;;;;;10.57;63.37;99597.06;4969251;28;97793;-73
2023/11/11 02:37:36;;;;;;;6.63;1.55;;;;;;;10.57;63.38;99602.34;4972513;28;97015;-73
2023/11/11 02:40:03;;;;;;;2.50;1.50;;;;;;;10.68;63.60;99612.34;4971664;28;98919;-73
2023/11/11 02:42:31;;;;;;;3.13;1.40;;;;;;;10.56;63.61;99605.09;4971610;28;98790;-73
2023/11/11 02:44:57;;;;;;;4.88;1.60;;;;;;;10.60;63.56;99602.19;4969126;28;97231;-73
2023/11/11 02:47:24;;;;;;;4.10;1.50;;;;;;;10.50;63.67;99611.53;4971451;28;96843;-72
2023/11/11 02:49:50;;;;;;;3.83;1.70;;;;;;;10.49;63.34;99598.41;4968180;28;99702;-72
2023/11/11 02:52:17;;;;;;;4.53;1.73;;;;;;;10.34;64.03;99602.72;4972237;28;99284;-73
2023/11/11 02:54:43;;;;;;;2.72;1.70;;;;;;;10.40;63.50;99605.03;4970865;28;96775;-73
2023/11/11 02:57:10;;;;;;;2.95;1.48;;;;;;;10.41;63.82;99596.19;4971992;28;98934;-72
2023/11/11 02:59:39;;;;;;;8.43;1.52;;;;;;;10.58;63.11;99590.84;4972349;28;98828;-72
2023/11/11 03:02:07;;;;;;;5.40;1.55;;;;;;;10.62;63.02;99600.31;4970428;28;98950;-76
2023/11/11 03:04:33;;;;;;;5.78;2.15;;;;;;;10.61;63.33;99593.34;4971191;28;98477;-76
2023/11/11 03:07:00;;;;;;;2.38;1.40;;;;;;;10.58;63.16;99592.63;4969000;28;97776;-77
2023/11/11 03:09:27;;;;;;;3.40;1.55;;;;;;;10.47;63.61;99587.94;4973789;28;99303;-77
2023/11/11 03:11:53;;;;;;;3.97;1.92;;;;;;;10.36;63.70;99583.22;4972331;28;98887;-76
2023/11/11 03:14:20;;;;;;;4.95;1.65;;;;;;;10.68;62.92;99586.78;4973627;28;96723;-75
2023/11/11 03:16:47;;;;;;;2.25;1.65;;;;;;;10.58;62.97;99588.19;4970060;28;97362;-76
2023/11/11 03:19:14;;;;;;;3.13;1.63;;;;;;;10.55;62.73;99587.53;4971736;28;99014;-74
2023/11/11 03:21:41;;;;;;;3.83;1.70;;;;;;;10.62;62.95;99581.84;4972192;28;99179;-73
2023/11/11 03:24:08;;;;;;;4.75;1.92;;;;;;;10.38;62.98;99583.13;4971605;28;96719;-72
2023/11/11 03:26:34;;;;;;;4.78;1.80;;;;;;;10.45;62.95;99583.66;4972204;28;96782;-73
2023/11/11 03:29:06;;;;;;;6.32;1.95;;;;;;;10.27;63.65;99585.50;4969727;28;98823;-73
2023/11/11 03:31:33;;;;;;;5.85;1.70;;;;;;;10.20;63.99;99586.75;4978158;28;98062;-73
2023/11/11 03:34:00;;;;;;;4.20;1.70;;;;;;;9.95;64.91;99587.97;4984496;28;96875;-73
2023/11/11 03:36:27;;;;;;;4.25;2.10;;;;;;;10.24;64.37;99586.50;4970882;28;97948;-73
2023/11/11 03:38:53;;;;;;;3.47;1.52;;;;;;;10.20;64.14;99584.09;4971477;28;97734;-73
2023/11/11 03:41:20;;;;;;;1.83;1.50;;;;;;;10.21;64.24;99585.81;4971413;28;99252;-74
2023/11/11 03:43:46;;;;;;;3.80;1.73;;;;;;;10.20;64.11;99586.75;4971288;28;96768;-73
2023/11/11 03:46:12;;;;;;;4.13;1.65;;;;;;;10.26;63.72;99589.06;4971005;28;96759;-73
2023/11/11 03:48:39;;;;;;;4.05;1.75;;;;;;;10.10;65.01;99585.50;4969616;28;98748;-73
2023/11/11 03:51:08;;;;;;;6.63;2.00;;;;;;;10.10;64.24;99588.13;4968934;28;98854;-74
2023/11/11 03:53:34;;;;;;;4.25;1.60;;;;;;;10.28;63.84;99590.69;4971752;28;96721;-73
2023/11/11 03:56:03;;;;;;;8.82;1.95;;;;;;;10.30;63.70;99590.63;4969701;28;97699;-74
2023/11/11 03:58:30;;;;;;;3.33;1.60;;;;;;;10.17;64.06;99587.78;4970095;28;97744;-73
2023/11/11 04:00:56;;;;;;;3.85;1.88;;;;;;;10.11;64.36;99595.13;4970696;28;99675;-73
2023/11/11 04:03:22;;;;;;;7.05;1.98;;;;;;;9.97;64.82;99588.78;4969440;28;97044;-73
2023/11/11 04:05:49;;;;;;;7.18;1.90;;;;;;;10.06;64.42;99583.91;4969078;28;96929;-73
2023/11/11 04:08:17;;;;;;;8.38;1.90;;;;;;;9.90;64.84;99583.88;4969313;28;97737;-73
2023/11/11 04:10:43;;;;;;;4.57;1.73;;;;;;;10.15;64.45;99583.47;4969300;28;98935;-73
2023/11/11 04:13:12;;;;;;;4.03;1.83;;;;;;;10.29;64.20;99591.56;4969965;28;97084;-73
2023/11/11 04:15:38;;;;;;;3.70;1.65;;;;;;;10.16;64.11;99586.03;4971634;28;96832;-72
2023/11/11 04:20:58;;;;;;;4.43;1.80;;;;;;;10.43;63.37;99580.25;4967392;28;101235;-72
2023/11/11 04:23:27;;;;;;;6.72;2.40;;;;;;;10.54;63.13;99586.66;4970988;28;97173;-73
2023/11/11 04:25:54;;;;;;;4.05;1.85;;;;;;;10.61;62.61;99581.91;4973702;28;96769;-73
2023/11/11 04:28:20;;;;;;;5.55;2.20;;;;;;;10.57;62.88;99590.91;4969316;28;98796;-73
2023/11/11 04:30:47;;;;;;;7.68;2.08;;;;;;;10.59;62.77;99581.97;4970476;28;98820;-76
2023/11/11 04:33:13;;;;;;;4.15;2.08;;;;;;;10.74;62.50;99582.94;4969753;28;96845;-76
2023/11/11 04:35:39;;;;;;;2.92;1.65;;;;;;;10.66;62.53;99586.00;4969661;28;96740;-76
2023/11/11 04:38:07;;;;;;;2.47;1.73;;;;;;;10.88;61.86;99579.56;4967824;28;99600;-77
2023/11/11 04:40:36;;;;;;;4.57;2.08;;;;;;;10.81;61.82;99583.47;4970519;28;98997;-77
2023/11/11 04:43:03;;;;;;;5.72;1.67;;;;;;;10.82;61.51;99579.91;4970482;28;96918;-77
2023/11/11 04:45:30;;;;;;;4.65;1.70;;;;;;;10.81;61.41;99591.41;4971233;28;97294;-76
2023/11/11 04:47:57;;;;;;;8.82;2.08;;;;;;;11.14;60.87;99590.41;4969749;28;100834;-77
2023/11/11 04:50:23;;;;;;;5.57;2.05;;;;;;;10.76;61.94;99589.00;4970968;28;99214;-76
2023/11/11 04:52:50;;;;;;;3.38;1.80;;;;;;;10.65;61.65;99594.84;4973135;28;96769;-76
2023/11/11 04:55:16;;;;;;;4.18;2.10;;;;;;;10.87;61.40;99597.19;4974138;28;97216;-76
2023/11/11 04:57:44;;;;;;;3.40;1.90;;;;;;;11.13;60.88;99595.75;4972996;28;99286;-76
2023/11/11 05:00:13;;;;;;;3.63;1.60;;;;;;;11.05;60.76;99598.81;4972983;28;101794;-76
2023/11/11 05:02:40;;;;;;;5.00;2.38;;;;;;;11.04;60.79;99605.03;4973777;28;96816;-76
2023/11/11 05:05:10;;;;;;;6.50;2.05;;;;;;;11.21;60.42;99603.25;4972015;28;96849;-76
2023/11/11 05:07:37;;;;;;;4.35;1.88;;;;;;;11.00;60.72;99605.31;4973089;28;101725;-76
2023/11/11 05:10:05;;;;;;;3.30;1.73;;;;;;;11.01;60.67;99597.31;4972818;28;100121;-77
2023/11/11 05:12:33;;;;;;;4.07;2.08;;;;;;;10.89;61.21;99597.13;4972386;28;97292;-78
2023/11/11 05:15:01;;;;;;;5.53;1.55;;;;;;;10.58;62.21;99603.19;4974837;28;96799;-77
2023/11/11 05:17:27;;;;;;;4.03;1.80;;;;;;;10.68;61.86;99599.13;4973035;28;100454;-78
2023/11/11 05:19:54;;;;;;;4.60;1.77;;;;;;;10.61;62.55;99608.31;4973872;28;99503;-77
2023/11/11 05:22:21;;;;;;;5.28;1.90;;;;;;;10.50;62.83;99611.53;4969966;28;96872;-77
2023/11/11 05:24:47;;;;;;;5.03;1.80;;;;;;;10.47;62.78;99605.56;4974319;28;96718;-78
2023/11/11 05:27:14;;;;;;;2.85;1.70;;;;;;;10.57;62.52;99604.97;4972857;28;98746;-77
2023/11/11 05:29:41;;;;;;;2.28;1.73;;;;;;;10.71;61.84;99609.53;4973055;28;99041;-76
2023/11/11 05:32:09;;;;;;;4.78;1.90;;;;;;;10.87;61.76;99609.56;4971584;28;96911;-76
2023/11/11 05:34:36;;;;;;;9.32;3.30;;;;;;;10.61;62.51;99609.19;4973653;28;97051;-76
2023/11/11 05:37:03;;;;;;;2.92;1.85;;;;;;;10.64;62.59;99614.28;4970940;28;98746;-76
2023/11/11 05:39:29;;;;;;;6.47;1.92;;;;;;;10.40;62.95;99610.31;4971416;28;101505;-76
2023/11/11 05:41:55;;;;;;;5.70;1.90;;;;;;;10.51;62.67;99615.03;4971924;28;96718;-76
2023/11/11 05:44:22;;;;;;;5.10;2.08;;;;;;;10.63;62.54;99612.56;4971627;28;96950;-76
2023/11/11 05:46:48;;;;;;;4.50;1.90;;;;;;;10.70;62.70;99605.16;4971827;28;99016;-76
2023/11/11 05:49:16;;;;;;;3.70;1.90;;;;;;;10.64;62.46;99611.66;4973647;28;99126;-77
2023/11/11 05:51:43;;;;;;;7.72;2.30;;;;;;;10.60;62.72;99617.19;4971811;28;97693;-75
2023/11/11 05:54:10;;;;;;;4.45;1.95;;;;;;;10.71;62.65;99620.09;4972960;28;96801;-77
2023/11/11 05:56:37;;;;;;;5.05;2.42;;;;;;;10.84;62.33;99620.28;4977807;28;97925;-77
2023/11/11 05:59:04;;;;;;;6.68;2.08;;;;;;;10.55;62.96;99622.72;4971727;28;98980;-77
2023/11/11 06:01:30;;;;;;;3.42;1.77;;;;;;;10.53;63.34;99624.56;4969059;28;97018;-72
2023/11/11 06:03:57;;;;;;;2.88;2.13;;;;;;;10.79;62.49;99626.69;4969582;28;98515;-72
2023/11/11 06:06:25;;;;;;;2.80;1.85;;;;;;;10.73;62.57;99626.16;4963899;28;100054;-74
2023/11/11 06:08:52;;;;;;;3.42;1.92;;;;;;;10.68;62.66;99626.41;4972019;28;98815;-72
2023/11/11 06:11:18;;;;;;;8.77;2.28;;;;;;;10.58;62.96;99626.97;4972040;28;96686;-73
2023/11/11 06:13:45;;;;;;;5.95;2.25;;;;;;;10.87;62.08;99625.41;4969881;28;96972;-72
2023/11/11 06:16:11;;;;;;;6.20;2.13;;;;;;;10.84;61.94;99630.84;4970691;28;99116;-73
2023/11/11 06:18:38;;;;;;;4.60;2.58;;;;;;;10.83;62.26;99634.47;4969474;28;99142;-73
2023/11/11 06:21:08;;;;;;;3.25;1.90;;;;;;;10.95;61.49;99632.00;4970934;28;98019;-73
2023/11/11 06:23:37;;;;;;;5.55;2.50;;;;;;;10.70;62.25;99650.94;4967139;28;97027;-72
2023/11/11 06:26:03;;;;;;;2.28;1.88;;;;;;;10.82;61.96;99661.81;4971688;28;99347;-73
2023/11/11 06:28:30;;;;;;;6.45;2.10;;;;;;;10.72;62.51;99654.38;4972605;28;98978;-74
2023/11/11 06:30:56;;;;;;;5.70;2.08;;;;;;;10.63;62.55;99656.66;4971543;28;96869;-73
2023/11/11 06:33:23;;;;;;;5.88;2.60;;;;;;;10.65;62.43;99658.25;4971173;28;97113;-74
2023/11/11 06:35:50;;;;;;;6.63;2.25;;;;;;;10.54;62.95;99660.63;4970247;28;101879;-73
2023/11/11 06:38:16;;;;;;;5.28;2.42;;;;;;;10.53;63.00;99668.63;4971875;28;99197;-72
2023/11/11 06:40:44;;;;;;;6.57;2.75;;;;;;;10.63;62.38;99669.88;4971381;28;96909;-73
2023/11/11 06:43:11;;;;;;;5.85;2.92;;;;;;;10.56;62.60;99674.63;4965687;28;96925;-73
2023/11/11 06:45:39;;;;;;;7.57;2.95;;;;;;;10.53;62.70;99672.13;4968819;28;99340;-73
2023/11/11 06:48:08;;;;;;;4.07;2.28;;;;;;;10.52;62.70;99665.13;4970416;28;99030;-73
2023/11/11 06:50:35;;;;;;;7.22;2.80;;;;;;;10.57;62.60;99668.38;4967659;28;97205;-72
2023/11/11 06:53:01;;;;;;;6.50;2.83;;;;;;;10.37;63.26;99673.88;4963664;28;98667;-72
2023/11/11 06:55:30;;;;;;;4.93;2.47;;;;;;;10.17;64.19;99674.88;4953857;28;100633;-72
2023/11/11 06:57:58;;;;;;;6.80;3.05;;;;;;;10.30;63.68;99669.84;4954634;28;98775;-73
2023/11/11 07:00:25;;;;;;;5.22;2.75;;;;;;;10.23;64.00;99677.22;4964199;28;97828;-74
2023/11/11 07:02:54;;;;;;;4.45;2.78;;;;;;;10.30;63.70;99675.97;4972021;28;96955;-72
2023/11/11 07:05:21;;;;;;;6.25;2.58;;;;;;;10.53;63.19;99672.13;4973909;28;99107;-73
2023/11/11 07:07:47;;;;;;;7.22;3.08;;;;;;;10.50;63.17;99666.16;4981476;28;97500;-74
2023/11/11 07:10:14;;;;;;;6.20;2.85;;;;;;;10.47;63.82;99668.94;4973399;28;97172;-74
2023/11/11 07:12:41;;;;;;;5.65;2.83;;;;;;;10.81;62.34;99662.75;4974867;28;96786;-73
2023/11/11 07:15:10;;;;;;;7.68;3.38;;;;;;;10.69;62.54;99658.97;4979777;28;98890;-73
2023/11/11 07:17:37;;;;;;;5.88;2.78;;;;;;;10.82;61.99;99664.47;4971305;28;99370;-73
2023/11/11 07:20:05;;;;;;;9.32;3.20;;;;;;;11.05;61.31;99666.69;4963171;28;97090;-73
2023/11/11 07:22:32;;;;;;;4.13;2.65;;;;;;;10.99;61.76;99674.97;4957018;28;99047;-73
2023/11/11 07:24:59;;;;;;;6.05;2.30;;;;;;;11.05;60.96;99672.84;4969274;28;99049;-72
2023/11/11 07:27:25;;;;;;;4.70;2.58;;;;;;;11.13;60.89;99677.72;4969502;28;99908;-72
2023/11/11 07:29:53;;;;;;;6.53;2.33;;;;;;;11.21;60.20;99682.59;4970857;28;97083;-73
2023/11/11 07:32:22;;;;;;;3.63;2.47;;;;;;;11.40;59.55;99678.00;4969823;28;96993;-72
2023/11/11 07:34:48;;;;;;;5.18;2.45;;;;;;;11.52;59.15;99678.16;4970146;28;99183;-73
2023/11/11 07:37:15;;;;;;;4.47;2.38;;;;;;;11.43;59.29;99683.09;4970570;28;98809;-73
2023/11/11 07:39:43;;;;;;;4.57;2.13;;;;;;;11.79;58.46;99672.28;4969598;28;97214;-74
2023/11/11 07:42:09;;;;;;;12.35;2.83;;;;;;;11.54;59.39;99671.00;4968765;28;98426;-74
2023/11/11 07:44:36;;;;;;;4.57;2.38;;;;;;;11.70;58.44;99681.56;4965555;28;99039;-73
2023/11/11 07:47:06;;;;;;;4.20;2.15;;;;;;;11.68;58.39;99677.31;4970732;28;98974;-73
2023/11/11 07:49:34;;;;;;;3.22;2.15;;;;;;;11.77;58.36;99687.38;4968022;28;98027;-73
2023/11/11 07:52:02;;;;;;;6.72;2.80;;;;;;;11.59;58.50;99690.09;4970288;28;96843;-74
2023/11/11 07:54:29;;;;;;;4.28;2.40;;;;;;;11.35;59.12;99686.19;4968702;28;98856;-72
2023/11/11 07:56:57;;;;;;;5.45;2.70;;;;;;;11.63;58.12;99688.13;4970338;28;98727;-73
2023/11/11 07:59:24;;;;;;;4.20;2.13;;;;;;;11.61;58.46;99691.81;4970140;28;96961;-73
2023/11/11 08:01:50;;;;;;;6.10;2.45;;;;;;;11.66;58.11;99684.47;4970799;28;96781;-73
2023/11/11 08:04:17;;;;;;;7.18;2.38;;;;;;;11.87;57.59;99683.28;4970704;28;97740;-73
2023/11/11 08:06:45;;;;;;;8.52;2.75;;;;;;;11.73;58.26;99686.69;4965510;28;97554;-73
2023/11/11 08:09:11;;;;;;;4.55;2.00;;;;;;;11.88;57.68;99685.00;4962118;28;96911;-73
2023/11/11 08:11:38;;;;;;;5.82;2.25;;;;;;;11.97;57.26;99700.31;4968221;28;97059;-73
2023/11/11 08:14:05;;;;;;;6.57;2.13;;;;;;;12.34;56.39;99694.59;4969370;28;98981;-73
2023/11/11 08:16:31;;;;;;;4.00;1.85;;;;;;;12.32;56.13;99703.56;4967604;28;101768;-73
2023/11/11 08:18:58;;;;;;;5.57;2.60;;;;;;;12.24;55.70;99704.03;4968221;28;96759;-73
2023/11/11 08:21:31;;;;;;;4.88;2.78;;;;;;;12.24;55.89;99705.81;4965824;28;96885;-73
2023/11/11 08:23:59;;;;;;;10.52;2.60;;;;;;;12.38;55.75;99708.50;4962528;28;99996;-72
2023/11/11 08:26:25;;;;;;;4.22;2.40;;;;;;;12.34;55.60;99697.22;4969013;28;98630;-73
2023/11/11 08:28:52;;;;;;;4.95;2.63;;;;;;;12.48;55.58;99711.44;4971770;28;96856;-73
2023/11/11 08:31:19;;;;;;;6.63;2.50;;;;;;;12.53;55.48;99712.06;4972566;28;97719;-73
2023/11/11 08:33:46;;;;;;;9.68;2.83;;;;;;;12.43;55.84;99709.09;4973313;28;98090;-73
2023/11/11 08:36:13;;;;;;;5.10;2.40;;;;;;;12.54;55.31;99714.59;4969605;28;98759;-72
2023/11/11 08:38:39;;;;;;;5.15;2.17;;;;;;;12.60;55.09;99718.69;4970102;28;97063;-73
2023/11/11 08:41:08;;;;;;;7.40;2.28;;;;;;;12.61;55.08;99723.03;4973881;28;96880;-73
2023/11/11 08:43:35;;;;;;;7.30;3.08;;;;;;;12.85;54.75;99718.91;4972479;28;100082;-72
2023/11/11 08:46:01;;;;;;;7.10;2.28;;;;;;;12.82;54.46;99724.38;4970156;28;98854;-73
2023/11/11 08:48:30;;;;;;;4.47;2.58;;;;;;;12.59;54.77;99717.00;4968834;28;99526;-73
2023/11/11 08:50:56;;;;;;;6.47;2.33;;;;;;;12.56;55.11;99720.66;4970056;28;96870;-73
2023/11/11 08:53:23;;;;;;;5.85;2.53;;;;;;;12.59;55.09;99725.78;4971285;28;99415;-72
2023/11/11 08:55:49;;;;;;;3.60;2.00;;;;;;;12.53;54.92;99727.94;4973026;28;97224;-73
2023/11/11 08:58:17;;;;;;;3.38;2.13;;;;;;;12.48;55.01;99728.19;4972610;28;97187;-73
2023/11/11 09:00:46;;;;;;;7.07;2.78;;;;;;;12.98;54.30;99721.66;4971248;28;97665;-73
2023/11/11 09:03:12;;;;;;;6.55;2.30;;;;;;;12.87;54.77;99727.59;4971404;28;100191;-73
2023/11/11 09:05:39;;;;;;;8.10;2.80;;;;;;;13.13;54.04;99720.72;4970543;28;102121;-73
2023/11/11 09:08:06;;;;;;;6.43;2.70;;;;;;;12.96;53.80;99721.75;4972885;28;96949;-74
2023/11/11 09:10:33;;;;;;;6.00;2.25;;;;;;;13.24;53.57;99728.91;4968928;28;100392;-73
2023/11/11 09:13:00;;;;;;;5.15;2.28;;;;;;;13.13;53.52;99731.34;4972284;28;99758;-74
2023/11/11 09:15:27;;;;;;;6.88;2.50;;;;;;;13.13;53.82;99721.59;4970155;28;99096;-73
2023/11/11 09:17:54;;;;;;;9.13;2.80;;;;;;;13.40;53.21;99723.47;4971198;28;96835;-73
2023/11/11 09:20:22;;;;;;;3.47;2.20;;;;;;;13.27;53.45;99723.38;4971702;28;97614;-73
2023/11/11 09:22:50;;;;;;;3.30;2.05;;;;;;;13.44;53.56;99725.00;4966708;28;99452;-73
2023/11/11 09:25:16;;;;;;;13.23;3.28;;;;;;;13.54;53.72;99729.59;4969500;28;98805;-73
2023/11/11 09:27:43;;;;;;;6.88;2.50;;;;;;;13.45;53.48;99724.91;4972003;28;97626;-73
2023/11/11 09:30:10;;;;;;;7.28;2.15;;;;;;;13.49;53.66;99729.06;4976690;28;96814;-78
2023/11/11 09:32:38;;;;;;;7.03;3.05;;;;;;;13.75;53.64;99724.72;4984094;28;98187;-78
2023/11/11 09:35:05;;;;;;;4.85;2.20;;;;;;;13.83;53.09;99725.09;4984305;28;97799;-77
2023/11/11 09:37:32;;;;;;;3.15;2.13;;;;;;;13.62;53.38;99725.63;4983866;28;96756;-77
2023/11/11 09:39:58;;;;;;;7.30;2.30;;;;;;;13.49;53.45;99730.84;4983148;28;96827;-77
2023/11/11 09:42:25;;;;;;;8.70;2.42;;;;;;;13.86;53.26;99724.03;4962712;28;100586;-77
2023/11/11 09:44:51;;;;;;;4.57;2.05;;;;;;;13.96;53.07;99720.69;4970752;28;97510;-76
2023/11/11 09:47:23;;;;;;;5.95;2.13;;;;;;;13.87;52.96;99721.28;4977129;28;96719;-77
2023/11/11 09:49:50;;;;;;;6.35;2.38;;;;;;;13.74;53.31;99720.38;4962575;28;98407;-76
2023/11/11 09:52:17;;;;;;;6.88;2.42;;;;;;;13.58;53.69;99717.00;4972516;28;99267;-77
2023/11/11 09:54:46;;;;;;;7.63;2.35;;;;;;;13.58;53.49;99727.63;4969589;28;98866;-78
2023/11/11 09:57:19;;;;;;;8.05;2.50;;;;;;;13.79;52.94;99720.06;4971519;28;97063;-77
2023/11/11 09:59:47;;;;;;;8.25;2.63;;;;;;;13.86;52.95;99722.22;4971967;28;96918;-78
2023/11/11 10:02:15;;;;;;;6.22;2.78;;;;;;;13.61;53.15;99726.56;4972999;28;99069;-77
2023/11/11 10:04:41;;;;;;;5.18;2.70;;;;;;;14.20;52.19;99720.00;4968220;28;98783;-78
2023/11/11 10:07:12;;;;;;;4.15;2.30;;;;;;;14.21;51.82;99721.72;4971796;28;97280;-77
2023/11/11 10:09:39;;;;;;;7.28;2.45;;;;;;;14.31;51.40;99723.66;4973805;28;97167;-77
2023/11/11 10:12:05;;;;;;;7.65;2.90;;;;;;;14.06;52.06;99728.03;4973753;28;98851;-77
2023/11/11 10:14:34;;;;;;;7.70;3.45;;;;;;;14.22;51.74;99726.94;4972226;28;99634;-76
2023/11/11 10:17:03;;;;;;;6.28;2.20;;;;;;;14.18;51.78;99722.75;4975946;28;96768;-76
2023/11/11 10:19:30;;;;;;;7.72;2.40;;;;;;;13.81;52.13;99721.69;4973894;28;96775;-77
2023/11/11 10:22:02;;;;;;;4.20;2.10;;;;;;;14.00;52.15;99718.66;4972664;28;97762;-77
2023/11/11 10:24:33;;;;;;;5.53;2.42;;;;;;;14.30;51.82;99724.63;4979415;28;100624;-77
2023/11/11 10:26:59;;;;;;;5.88;2.40;;;;;;;14.41;51.73;99733.72;4973783;28;96847;-78
2023/11/11 10:29:26;;;;;;;9.40;2.70;;;;;;;14.25;52.08;99725.88;4974644;28;96980;-77
2023/11/11 10:31:53;;;;;;;12.80;3.13;;;;;;;14.07;51.79;99725.28;4974227;28;98858;-77
2023/11/11 10:34:19;;;;;;;5.97;2.70;;;;;;;14.13;51.35;99722.22;4974320;28;97865;-77
2023/11/11 10:36:46;;;;;;;6.35;2.97;;;;;;;14.46;51.15;99736.91;4974230;28;97667;-76
2023/11/11 10:39:14;;;;;;;6.03;2.25;;;;;;;14.20;51.94;99730.63;4974455;28;97279;-76
2023/11/11 10:41:43;;;;;;;4.45;2.15;;;;;;;14.18;51.85;99732.53;4969143;28;102031;-77
2023/11/11 10:44:09;;;;;;;6.82;2.53;;;;;;;14.46;50.60;99739.56;4971988;28;98920;-77
2023/11/11 10:46:37;;;;;;;3.85;2.35;;;;;;;14.46;51.56;99731.59;4969895;28;98978;-77
2023/11/11 10:49:04;;;;;;;7.28;2.33;;;;;;;14.52;50.56;99734.69;4966948;28;98278;-76
2023/11/11 10:51:32;;;;;;;4.97;2.63;;;;;;;14.59;50.30;99735.13;4973180;28;100964;-77
2023/11/11 10:54:01;;;;;;;9.18;2.35;;;;;;;14.66;49.81;99736.41;4971987;28;98907;-76
2023/11/11 10:56:29;;;;;;;8.65;2.38;;;;;;;14.62;50.26;99733.13;4966239;28;96824;-76
2023/11/11 10:58:59;;;;;;;5.63;2.40;;;;;;;14.58;50.27;99736.06;4971546;28;96774;-77
2023/11/11 11:01:26;;;;;;;3.38;2.35;;;;;;;14.86;49.96;99735.03;4966986;28;98816;-76
2023/11/11 11:03:52;;;;;;;4.95;2.50;;;;;;;14.97;49.64;99735.13;4966899;28;98882;-77
2023/11/11 11:06:26;;;;;;;6.78;2.17;;;;;;;15.06;49.01;99731.84;4972190;28;96860;-76
2023/11/11 11:09:01;;;;;;;3.92;2.15;;;;;;;15.11;49.27;99735.03;4964651;28;96762;-76
2023/11/11 11:11:33;;;;;;;3.90;2.35;;;;;;;15.17;48.73;99729.28;4969861;28;99000;-78
2023/11/11 11:14:14;;;;;;;4.63;2.35;;;;;;;14.93;49.11;99731.84;4975085;28;98337;-76
2023/11/11 11:16:41;;;;;;;4.53;1.98;;;;;;;14.96;48.85;99726.34;4962972;28;97142;-77
2023/11/11 11:19:14;;;;;;;6.40;2.35;;;;;;;14.92;49.18;99734.63;4971703;28;96830;-76
2023/11/11 11:21:41;;;;;;;5.57;2.10;;;;;;;14.90;49.50;99734.72;4970317;28;99015;-78
2023/11/11 11:24:12;;;;;;;4.63;2.60;;;;;;;15.01;49.35;99741.97;4972380;28;100855;-78
2023/11/11 11:26:39;;;;;;;6.70;2.55;;;;;;;14.94;49.35;99738.88;4965925;28;96898;-77
2023/11/11 11:29:17;;;;;;;6.05;2.95;;;;;;;14.71;50.13;99751.09;4963940;28;99218;-76
2023/11/11 11:32:11;;;;;;;5.30;2.15;;;;;;;14.71;50.27;99745.75;4967786;28;99206;-77
2023/11/11 11:34:45;;;;;;;8.32;2.47;;;;;;;14.70;51.34;99740.56;4928339;28;98910;-77